Latest Coastal Weather Observations for Cerberus

IDV60701

Issued at 5:45 am EST Wednesday 3 September 2014 (issued every 10 minutes, with the page automatically refreshed every 10 minutes)

About coastal observations | Map of coastal stations | Coastal observations for VIC | Marine services | Other Formats
Station Details ID: 086361 Name: CERBERUS Lat: -38.36 Lon: 145.18 Height: 12.69 m
Data from the previous 72 hours. | See also: Recent months at Cerberus
Date/Time
EST
Temp

°C
Wind Pressure Rain
since 9am
mm
Weather Cloud Vis
km
Sea
Height
m
Swell
Dir
 
Speed
knots
Gust
knots
hPa Trend Height
m
Period
s
Dir
03/05:30am 10.3 SSE 5 9 1022.3 - 0.0 - - - - - - -
03/05:00am 10.2 S 4 12 1022.2 - 0.0 - - - - - - -
03/04:30am 10.4 SSW 10 16 1022.2 - 0.0 - - - - - - -
03/04:00am 10.7 S 8 13 1022.0 - 0.0 - - - - - - -
03/03:30am 10.3 SSW 8 13 1022.1 - 0.0 - - - - - - -
03/03:00am 10.1 SSW 8 15 1022.1 - 0.0 - - - - - - -
03/02:30am 10.4 SSW 8 13 1022.2 - 0.0 - - - - - - -
03/02:00am 10.8 SSW 7 14 1022.5 - 0.0 - - - - - - -
03/01:30am 10.8 SSW 9 15 1022.6 - 0.0 - - - - - - -
03/01:00am 10.7 SSW 10 15 1022.6 - 0.0 - - - - - - -
03/12:30am 10.5 SSW 9 16 1022.5 - 0.0 - - - - - - -
03/12:00am 10.7 S 11 20 1022.5 - 0.0 - - - - - - -
 
Date/Time
EST
Temp

°C
Wind Pressure Rain
since 9am
mm
Weather Cloud Vis
km
Sea
Height
m
Swell
Dir
 
Speed
knots
Gust
knots
hPa Trend Height
m
Period
s
Dir
02/11:30pm 10.7 SSW 10 16 1022.6 - 0.0 - - - - - - -
02/11:00pm 10.8 SSW 12 18 1022.6 - 0.0 - - - - - - -
02/10:30pm 10.8 SSW 9 16 1022.7 - 0.0 - - - - - - -
02/10:00pm 10.8 SW 9 16 1022.8 - 0.0 - - - - - - -
02/09:30pm 11.1 SSW 10 15 1022.6 - 0.0 - - - - - - -
02/09:00pm 11.2 SSW 8 14 1022.7 - 0.0 - - - - - - -
02/08:30pm 11.4 S 9 16 1022.5 - 0.0 - - - - - - -
02/08:00pm 10.7 SW 9 15 1022.4 - 0.0 - - - - - - -
02/07:30pm 11.0 S 9 17 1022.2 - 0.0 - - - - - - -
02/07:00pm 11.1 S 9 15 1021.8 - 0.0 - - - - - - -
02/06:30pm 10.8 S 9 14 1021.7 - 0.0 - - - - - - -
02/06:00pm 11.1 S 11 15 1021.2 - 0.0 - - - - - - -
02/05:30pm 11.3 S 10 18 1020.8 - 0.0 - - - - - - -
02/05:00pm 11.6 S 12 17 1020.6 - 0.0 - - - - - - -
02/04:30pm 11.7 S 11 19 1020.4 - 0.0 - - - - - - -
02/04:00pm 11.9 S 11 17 1020.1 - 0.0 - - - - - - -
02/03:30pm 12.9 S 13 20 1020.0 - 0.0 - - - - - - -
02/03:00pm 13.1 S 14 20 1019.9 - 0.0 - - - - - - -
02/02:30pm 13.7 S 13 20 1019.7 - 0.0 - - - - - - -
02/02:00pm 13.2 S 14 23 1019.4 - 0.0 - - - - - - -
02/01:30pm 13.2 S 14 23 1019.1 - 0.0 - - - - - - -
02/01:01pm 13.2 S 15 25 1018.9 - 0.0 - - - - - - -
02/01:00pm 13.4 S 15 23 1018.9 - 0.0 - - - - - - -
02/12:48pm 13.3 S 15 25 1018.9 - 0.0 - - - - - - -
02/12:30pm 13.7 S 15 22 1018.8 - 0.0 - - - - - - -
02/12:00pm 13.3 SSW 14 21 1018.6 - 0.0 - - - - - - -
02/11:30am 13.4 SSW 13 19 1018.5 - 0.0 - - - - - - -
02/11:00am 13.0 SSW 14 22 1018.4 - 0.0 - - - - - - -
02/10:30am 12.8 SSW 12 18 1018.3 - 0.0 - - - - - - -
02/10:00am 13.3 SSW 11 18 1018.2 - 0.0 - - - - - - -
02/09:30am 12.8 S 12 19 1017.7 - 0.0 - - - - - - -
02/09:00am 12.4 SSW 13 19 1017.4 - 5.8 - - - - - - -
02/08:30am 12.3 SSW 11 15 1017.0 - 5.8 - - - - - - -
02/08:00am 12.0 S 11 18 1016.6 - 5.8 - - - - - - -
02/07:30am 11.0 SSW 9 14 1016.2 - 5.8 - - - - - - -
02/07:00am 10.4 S 9 13 1015.8 - 5.8 - - - - - - -
02/06:30am 9.3 S 7 14 1015.5 - 5.8 - - - - - - -
02/06:00am 10.1 SSW 6 10 1015.0 - 5.6 - - - - - - -
02/05:30am 10.5 SSW 6 10 1014.6 - 5.6 - - - - - - -
02/05:00am 10.3 SSW 9 14 1014.3 - 5.6 - - - - - - -
02/04:30am 9.9 S 11 19 1013.9 - 5.6 - - - - - - -
02/04:00am 8.8 WSW 4 7 1013.5 - 5.6 - - - - - - -
02/03:30am 9.1 W 4 6 1013.5 - 5.6 - - - - - - -
02/03:00am 9.9 WSW 5 8 1013.2 - 5.6 - - - - - - -
02/02:30am 9.5 W 4 6 1013.0 - 5.6 - - - - - - -
02/02:00am 9.3 W 4 7 1013.0 - 5.6 - - - - - - -
02/01:30am 9.0 W 2 3 1013.0 - 5.6 - - - - - - -
02/01:00am 9.4 W 4 6 1012.8 - 5.4 - - - - - - -
02/12:30am 9.4 WNW 6 9 1012.7 - 5.4 - - - - - - -
02/12:00am 9.7 W 3 5 1012.5 - 4.8 - - - - - - -
 
Date/Time
EST
Temp

°C
Wind Pressure Rain
since 9am
mm
Weather Cloud Vis
km
Sea
Height
m
Swell
Dir
 
Speed
knots
Gust
knots
hPa Trend Height
m
Period
s
Dir
01/11:30pm 10.2 W 6 8 1012.4 - 4.8 - - - - - - -
01/11:00pm 10.2 WNW 1 2 1012.2 - 4.8 - - - - - - -
01/10:30pm 10.4 WNW 3 4 1012.2 - 4.8 - - - - - - -
01/10:00pm 10.3 WNW 4 5 1012.2 - 4.8 - - - - - - -
01/09:30pm 10.6 WNW 3 4 1011.7 - 4.8 - - - - - - -
01/09:00pm 11.4 SW 4 7 1011.6 - 4.8 - - - - - - -
01/08:30pm 11.5 SW 6 9 1011.2 - 4.8 - - - - - - -
01/08:00pm 11.7 SW 6 10 1010.9 - 4.8 - - - - - - -
01/07:30pm 11.6 SSW 6 11 1010.6 - 4.8 - - - - - - -
01/07:00pm 10.8 W 4 6 1010.3 - 4.8 - - - - - - -
01/06:30pm 11.0 WSW 5 7 1010.0 - 4.8 - - - - - - -
01/06:00pm 11.6 SW 8 11 1009.7 - 4.8 - - - - - - -
01/05:30pm 11.5 WSW 4 7 1009.2 - 4.8 - - - - - - -
01/05:00pm 11.5 W 4 7 1008.9 - 4.8 - - - - - - -
01/04:30pm 11.6 W 3 5 1008.5 - 4.8 - - - - - - -
01/04:00pm 11.5 W 3 7 1008.4 - 4.6 - - - - - - -
01/03:30pm 11.5 WNW 1 2 1008.2 - 4.6 - - - - - - -
01/03:00pm 11.4 W 6 11 1008.4 - 4.2 Rain - - - - - -
01/02:30pm 11.9 WNW 7 11 1007.9 - 2.6 - - - - - - -
01/02:00pm 11.8 NW 6 10 1007.8 - 2.4 - - - - - - -
01/01:30pm 12.1 NW 7 11 1008.1 - 2.0 - - - - - - -
01/01:00pm 12.0 NW 5 9 1008.2 - 1.8 - - - - - - -
01/12:30pm 11.7 WNW 6 10 1008.4 - 1.8 - - - - - - -
01/12:00pm 11.6 NW 5 8 1008.2 - 1.4 Recent precip. - - - - - -
01/11:30am 11.4 NW 7 10 1008.3 - 1.2 - - - - - - -
01/11:00am 11.3 NW 8 12 1008.5 - 0.8 - - - - - - -
01/10:30am 13.0 NW 8 13 1008.4 - 0.0 - - - - - - -
01/10:00am 14.2 NNW 8 14 1008.8 - 0.0 - - - - - - -
01/09:30am 14.0 NNW 8 13 1008.7 - 0.0 - - - - - - -
01/09:00am 13.5 NNW 6 11 1008.2 - 0.0 - - - - - - -
01/08:30am 14.3 NW 10 18 1008.5 - 0.0 - - - - - - -
01/08:00am 14.2 NW 7 12 1008.3 - 0.0 - - - - - - -
01/07:30am 15.0 NNW 6 12 1008.0 - 0.0 - - - - - - -
01/07:00am 14.9 NNW 6 9 1007.7 - 0.0 - - - - - - -
01/06:30am 14.8 NW 7 11 1008.0 - 0.0 - - - - - - -
01/06:00am 16.1 WNW 7 11 1007.9 - 0.0 - - - - - - -
01/05:30am 17.2 N 9 17 1007.3 - 0.0 - - - - - - -
01/05:00am 17.2 N 7 17 1007.2 - 0.0 - - - - - - -
01/04:30am 17.1 NNE 9 19 1006.9 - 0.0 - - - - - - -
01/04:00am 17.3 N 9 15 1007.7 - 0.0 - - - - - - -
01/03:30am 17.4 N 9 21 1007.8 - 0.0 - - - - - - -
01/03:00am 17.4 N 7 13 1008.2 - 0.0 - - - - - - -
01/02:30am 17.7 N 11 25 1008.3 - 0.0 - - - - - - -
01/02:00am 17.2 N 8 16 1008.7 - 0.0 - - - - - - -
01/01:30am 17.1 N 7 12 1009.3 - 0.0 - - - - - - -
01/01:00am 17.0 N 9 14 1009.7 - 0.0 - - - - - - -
01/12:30am 17.6 N 7 14 1009.7 - 0.0 - - - - - - -
01/12:00am 17.5 N 6 11 1009.8 - 0.0 - - - - - - -
 
Date/Time
EST
Temp

°C
Wind Pressure Rain
since 9am
mm
Weather Cloud Vis
km
Sea
Height
m
Swell
Dir
 
Speed
knots
Gust
knots
hPa Trend Height
m
Period
s
Dir
31/11:30pm 17.3 N 5 9 1010.1 - 0.0 - - - - - - -
31/11:00pm 15.8 NNE 4 8 1010.1 - 0.0 - - - - - - -
31/10:30pm 15.0 NE 6 10 1010.1 - 0.0 - - - - - - -
31/10:00pm 16.1 NNE 5 9 1011.1 - 0.0 - - - - - - -
31/09:30pm 14.9 NNE 3 7 1011.6 - 0.0 - - - - - - -
31/09:00pm 15.9 NNE 5 8 1012.0 - 0.0 - - - - - - -
31/08:30pm 17.1 N 6 12 1012.3 - 0.0 - - - - - - -
31/08:00pm 17.3 N 7 12 1012.7 - 0.0 - - - - - - -
31/07:30pm 17.3 N 7 13 1012.7 - 0.0 - - - - - - -
31/07:00pm 17.3 N 5 10 1012.8 - 0.0 - - - - - - -
31/06:30pm 17.4 N 5 9 1013.0 - 0.0 - - - - - - -
31/06:00pm 17.9 N 4 8 1013.2 - 0.0 - - - - - - -
31/05:30pm 18.2 N 4 7 1013.2 - 0.0 - - - - - - -
31/05:00pm 19.3 N 5 9 1013.0 - 0.0 - - - - - - -
31/04:30pm 19.9 N 7 11 1012.9 - 0.0 - - - - - - -
31/04:00pm 19.4 N 7 11 1013.2 - 0.0 - - - - - - -
31/03:30pm 19.4 N 9 15 1013.5 - 0.0 - - - - - - -
31/03:00pm 19.9 N 11 19 1013.8 - 0.0 - - - - - - -
31/02:30pm 19.9 N 9 15 1014.3 - 0.0 - - - - - - -
31/02:00pm 19.8 N 11 19 1014.5 - 0.0 - - - - - - -
31/01:30pm 19.9 N 8 16 1014.8 - 0.0 - - - - - - -
31/01:00pm 20.5 N 11 21 1015.2 - 0.0 - - - - - - -
31/12:30pm 20.1 NNW 11 21 1015.6 - 0.0 - - - - - - -
31/12:00pm 20.1 NNW 12 18 1016.1 - 0.0 - - - - - - -
31/11:30am 19.8 N 8 16 1016.8 - 0.0 - - - - - - -
31/11:00am 18.9 N 9 18 1017.0 - 0.0 - - - - - - -
31/10:30am 18.4 NNW 9 15 1017.3 - 0.0 - - - - - - -
31/10:00am 17.3 N 11 19 1017.7 - 0.0 - - - - - - -
31/09:30am 16.4 N 10 16 1017.9 - 0.0 - - - - - - -
31/09:00am 14.6 NNE 4 10 1018.3 - 0.0 - - - - - - -
31/08:30am 12.2 NE 4 6 1018.5 - 0.0 - - - - - - -
31/08:00am 10.5 NNE 4 6 1018.7 - 0.0 - - - - - - -
31/07:30am 8.6 N 5 7 1018.9 - 0.0 - - - - - - -
31/07:00am 6.0 N 3 5 1018.8 - 0.0 - - - - - - -
31/06:30am 6.0 NNE 1 2 1018.7 - 0.0 - - - - - - -
31/06:00am 6.0 NNE 2 2 1018.6 - 0.0 - - - - - - -

Other Formats:

Comma delimited format used in spreadsheet applications
http://www.bom.gov.au/fwo/IDV60701/IDV60701.94898.axf

JavaScript Object Notation format (JSON) in row-major order
http://www.bom.gov.au/fwo/IDV60701/IDV60701.94898.json